sensor_id;sensor_type;location;lat;lon;timestamp;P1;durP1;ratioP1;P2;durP2;ratioP2
4424;SDS011;2225;53.568;13.266;2023-03-01T00:01:26;5.90;;;4.07;;
4424;SDS011;2225;53.568;13.266;2023-03-01T00:03:55;7.47;;;4.53;;
4424;SDS011;2225;53.568;13.266;2023-03-01T00:06:23;8.80;;;3.57;;
4424;SDS011;2225;53.568;13.266;2023-03-01T00:08:50;7.10;;;3.73;;
4424;SDS011;2225;53.568;13.266;2023-03-01T00:11:21;6.27;;;3.77;;
4424;SDS011;2225;53.568;13.266;2023-03-01T00:13:55;9.87;;;4.10;;
4424;SDS011;2225;53.568;13.266;2023-03-01T00:16:26;5.83;;;3.53;;
4424;SDS011;2225;53.568;13.266;2023-03-01T00:19:02;8.67;;;4.50;;
4424;SDS011;2225;53.568;13.266;2023-03-01T00:21:29;8.93;;;4.40;;
4424;SDS011;2225;53.568;13.266;2023-03-01T00:23:56;6.37;;;3.83;;
4424;SDS011;2225;53.568;13.266;2023-03-01T00:26:24;11.63;;;5.23;;
4424;SDS011;2225;53.568;13.266;2023-03-01T00:28:52;8.90;;;4.40;;
4424;SDS011;2225;53.568;13.266;2023-03-01T00:31:22;10.90;;;5.23;;
4424;SDS011;2225;53.568;13.266;2023-03-01T00:33:54;8.77;;;5.30;;
4424;SDS011;2225;53.568;13.266;2023-03-01T00:36:24;9.93;;;4.33;;
4424;SDS011;2225;53.568;13.266;2023-03-01T00:38:55;7.50;;;4.40;;
4424;SDS011;2225;53.568;13.266;2023-03-01T00:41:22;6.87;;;4.40;;
4424;SDS011;2225;53.568;13.266;2023-03-01T00:43:50;8.40;;;4.30;;
4424;SDS011;2225;53.568;13.266;2023-03-01T00:46:18;10.70;;;4.10;;
4424;SDS011;2225;53.568;13.266;2023-03-01T00:48:48;9.57;;;4.90;;
4424;SDS011;2225;53.568;13.266;2023-03-01T00:51:16;7.67;;;5.30;;
4424;SDS011;2225;53.568;13.266;2023-03-01T00:53:47;7.53;;;4.80;;
4424;SDS011;2225;53.568;13.266;2023-03-01T00:56:17;8.10;;;4.27;;
4424;SDS011;2225;53.568;13.266;2023-03-01T00:58:44;10.07;;;5.30;;
4424;SDS011;2225;53.568;13.266;2023-03-01T01:01:16;8.70;;;4.37;;
4424;SDS011;2225;53.568;13.266;2023-03-01T01:03:50;10.23;;;5.20;;
4424;SDS011;2225;53.568;13.266;2023-03-01T01:06:26;7.87;;;4.60;;
4424;SDS011;2225;53.568;13.266;2023-03-01T01:08:59;6.30;;;4.30;;
4424;SDS011;2225;53.568;13.266;2023-03-01T01:11:27;8.70;;;4.53;;
4424;SDS011;2225;53.568;13.266;2023-03-01T01:13:56;8.77;;;4.80;;
4424;SDS011;2225;53.568;13.266;2023-03-01T01:16:24;9.37;;;4.83;;
4424;SDS011;2225;53.568;13.266;2023-03-01T01:18:53;7.60;;;4.10;;
4424;SDS011;2225;53.568;13.266;2023-03-01T01:21:21;7.03;;;4.10;;
4424;SDS011;2225;53.568;13.266;2023-03-01T01:23:50;5.83;;;3.77;;
4424;SDS011;2225;53.568;13.266;2023-03-01T01:26:18;10.23;;;4.03;;
4424;SDS011;2225;53.568;13.266;2023-03-01T01:28:52;11.70;;;4.17;;
4424;SDS011;2225;53.568;13.266;2023-03-01T01:31:21;10.30;;;4.77;;
4424;SDS011;2225;53.568;13.266;2023-03-01T01:33:50;7.43;;;4.10;;
4424;SDS011;2225;53.568;13.266;2023-03-01T01:36:18;6.20;;;4.67;;
4424;SDS011;2225;53.568;13.266;2023-03-01T01:38:45;7.50;;;4.13;;
4424;SDS011;2225;53.568;13.266;2023-03-01T01:41:13;10.10;;;4.23;;
4424;SDS011;2225;53.568;13.266;2023-03-01T01:43:42;6.13;;;3.97;;
4424;SDS011;2225;53.568;13.266;2023-03-01T01:46:26;7.43;;;4.10;;
4424;SDS011;2225;53.568;13.266;2023-03-01T01:49:22;7.83;;;4.87;;
4424;SDS011;2225;53.568;13.266;2023-03-01T01:51:49;7.93;;;4.17;;
4424;SDS011;2225;53.568;13.266;2023-03-01T01:54:29;7.30;;;4.43;;
4424;SDS011;2225;53.568;13.266;2023-03-01T01:57:06;6.53;;;3.83;;
4424;SDS011;2225;53.568;13.266;2023-03-01T01:59:39;6.60;;;3.73;;
4424;SDS011;2225;53.568;13.266;2023-03-01T02:02:09;8.10;;;4.10;;
4424;SDS011;2225;53.568;13.266;2023-03-01T02:04:38;7.70;;;3.37;;
4424;SDS011;2225;53.568;13.266;2023-03-01T02:07:14;8.40;;;3.40;;
4424;SDS011;2225;53.568;13.266;2023-03-01T02:09:45;11.17;;;5.07;;
4424;SDS011;2225;53.568;13.266;2023-03-01T02:12:18;5.90;;;3.67;;
4424;SDS011;2225;53.568;13.266;2023-03-01T02:14:48;9.73;;;4.53;;
4424;SDS011;2225;53.568;13.266;2023-03-01T02:17:15;11.43;;;4.10;;
4424;SDS011;2225;53.568;13.266;2023-03-01T02:19:53;6.10;;;4.00;;
4424;SDS011;2225;53.568;13.266;2023-03-01T02:22:40;11.03;;;4.37;;
4424;SDS011;2225;53.568;13.266;2023-03-01T02:25:26;8.40;;;4.20;;
4424;SDS011;2225;53.568;13.266;2023-03-01T02:28:19;4.70;;;3.73;;
4424;SDS011;2225;53.568;13.266;2023-03-01T02:30:52;6.07;;;3.90;;
4424;SDS011;2225;53.568;13.266;2023-03-01T02:33:38;8.57;;;4.00;;
4424;SDS011;2225;53.568;13.266;2023-03-01T02:36:08;6.90;;;3.93;;
4424;SDS011;2225;53.568;13.266;2023-03-01T02:38:41;6.17;;;3.47;;
4424;SDS011;2225;53.568;13.266;2023-03-01T02:41:08;8.13;;;4.00;;
4424;SDS011;2225;53.568;13.266;2023-03-01T02:43:38;7.43;;;3.87;;
4424;SDS011;2225;53.568;13.266;2023-03-01T02:46:06;15.90;;;4.47;;
4424;SDS011;2225;53.568;13.266;2023-03-01T02:48:47;7.30;;;3.50;;
4424;SDS011;2225;53.568;13.266;2023-03-01T02:54:08;7.37;;;3.70;;
4424;SDS011;2225;53.568;13.266;2023-03-01T02:56:51;12.03;;;3.90;;
4424;SDS011;2225;53.568;13.266;2023-03-01T02:59:21;5.67;;;3.70;;
4424;SDS011;2225;53.568;13.266;2023-03-01T03:01:53;7.80;;;3.53;;
4424;SDS011;2225;53.568;13.266;2023-03-01T03:04:20;4.83;;;2.93;;
4424;SDS011;2225;53.568;13.266;2023-03-01T03:06:49;5.60;;;3.57;;
4424;SDS011;2225;53.568;13.266;2023-03-01T03:09:17;7.60;;;3.60;;
4424;SDS011;2225;53.568;13.266;2023-03-01T03:11:45;8.20;;;4.73;;
4424;SDS011;2225;53.568;13.266;2023-03-01T03:14:13;6.40;;;3.73;;
4424;SDS011;2225;53.568;13.266;2023-03-01T03:16:46;5.90;;;3.93;;
4424;SDS011;2225;53.568;13.266;2023-03-01T03:19:17;6.10;;;3.30;;
4424;SDS011;2225;53.568;13.266;2023-03-01T03:21:45;6.80;;;3.60;;
4424;SDS011;2225;53.568;13.266;2023-03-01T03:24:12;6.23;;;3.60;;
4424;SDS011;2225;53.568;13.266;2023-03-01T03:26:39;8.50;;;3.23;;
4424;SDS011;2225;53.568;13.266;2023-03-01T03:29:06;5.13;;;3.33;;
4424;SDS011;2225;53.568;13.266;2023-03-01T03:31:33;7.03;;;3.57;;
4424;SDS011;2225;53.568;13.266;2023-03-01T03:34:00;6.80;;;3.20;;
4424;SDS011;2225;53.568;13.266;2023-03-01T03:36:27;4.90;;;3.40;;
4424;SDS011;2225;53.568;13.266;2023-03-01T03:38:54;3.23;;;2.60;;
4424;SDS011;2225;53.568;13.266;2023-03-01T03:41:21;5.63;;;3.40;;
4424;SDS011;2225;53.568;13.266;2023-03-01T03:43:48;9.60;;;3.53;;
4424;SDS011;2225;53.568;13.266;2023-03-01T03:46:15;5.97;;;3.10;;
4424;SDS011;2225;53.568;13.266;2023-03-01T03:48:43;5.33;;;3.27;;
4424;SDS011;2225;53.568;13.266;2023-03-01T03:51:12;3.83;;;2.83;;
4424;SDS011;2225;53.568;13.266;2023-03-01T03:53:41;4.53;;;2.93;;
4424;SDS011;2225;53.568;13.266;2023-03-01T03:56:10;5.87;;;3.40;;
4424;SDS011;2225;53.568;13.266;2023-03-01T03:58:37;9.20;;;3.20;;
4424;SDS011;2225;53.568;13.266;2023-03-01T04:01:04;7.00;;;3.37;;
4424;SDS011;2225;53.568;13.266;2023-03-01T04:03:32;4.93;;;2.43;;
4424;SDS011;2225;53.568;13.266;2023-03-01T04:06:01;10.10;;;2.77;;
4424;SDS011;2225;53.568;13.266;2023-03-01T04:08:30;7.87;;;3.20;;
4424;SDS011;2225;53.568;13.266;2023-03-01T04:10:58;6.90;;;3.30;;
4424;SDS011;2225;53.568;13.266;2023-03-01T04:13:47;5.53;;;2.93;;
4424;SDS011;2225;53.568;13.266;2023-03-01T04:16:14;6.20;;;3.00;;
4424;SDS011;2225;53.568;13.266;2023-03-01T04:18:41;4.63;;;2.80;;
4424;SDS011;2225;53.568;13.266;2023-03-01T04:21:08;14.40;;;3.37;;
4424;SDS011;2225;53.568;13.266;2023-03-01T04:23:37;5.63;;;3.20;;
4424;SDS011;2225;53.568;13.266;2023-03-01T04:26:05;6.43;;;3.00;;
4424;SDS011;2225;53.568;13.266;2023-03-01T04:31:03;4.90;;;3.30;;
4424;SDS011;2225;53.568;13.266;2023-03-01T04:33:40;2.70;;;2.40;;
4424;SDS011;2225;53.568;13.266;2023-03-01T04:36:10;7.17;;;3.10;;
4424;SDS011;2225;53.568;13.266;2023-03-01T04:38:38;8.70;;;3.43;;
4424;SDS011;2225;53.568;13.266;2023-03-01T04:41:06;4.77;;;3.03;;
4424;SDS011;2225;53.568;13.266;2023-03-01T04:43:36;7.70;;;3.40;;
4424;SDS011;2225;53.568;13.266;2023-03-01T04:46:04;7.73;;;3.10;;
4424;SDS011;2225;53.568;13.266;2023-03-01T04:48:36;3.90;;;2.73;;
4424;SDS011;2225;53.568;13.266;2023-03-01T04:51:04;8.70;;;3.37;;
4424;SDS011;2225;53.568;13.266;2023-03-01T04:53:32;4.03;;;2.80;;
4424;SDS011;2225;53.568;13.266;2023-03-01T04:55:59;7.90;;;3.20;;
4424;SDS011;2225;53.568;13.266;2023-03-01T04:58:26;4.47;;;2.87;;
4424;SDS011;2225;53.568;13.266;2023-03-01T05:00:54;4.60;;;3.33;;
4424;SDS011;2225;53.568;13.266;2023-03-01T05:03:21;5.27;;;3.00;;
4424;SDS011;2225;53.568;13.266;2023-03-01T05:05:50;8.77;;;3.10;;
4424;SDS011;2225;53.568;13.266;2023-03-01T05:08:18;12.00;;;3.47;;
4424;SDS011;2225;53.568;13.266;2023-03-01T05:10:51;5.07;;;3.20;;
4424;SDS011;2225;53.568;13.266;2023-03-01T05:13:19;5.87;;;3.27;;
4424;SDS011;2225;53.568;13.266;2023-03-01T05:15:48;3.97;;;2.70;;
4424;SDS011;2225;53.568;13.266;2023-03-01T05:18:22;5.07;;;3.10;;
4424;SDS011;2225;53.568;13.266;2023-03-01T05:20:53;5.77;;;3.40;;
4424;SDS011;2225;53.568;13.266;2023-03-01T05:23:22;5.10;;;2.90;;
4424;SDS011;2225;53.568;13.266;2023-03-01T05:25:49;4.10;;;3.10;;
4424;SDS011;2225;53.568;13.266;2023-03-01T05:28:19;5.57;;;4.20;;
4424;SDS011;2225;53.568;13.266;2023-03-01T05:30:46;3.80;;;2.87;;
4424;SDS011;2225;53.568;13.266;2023-03-01T05:33:13;6.07;;;3.33;;
4424;SDS011;2225;53.568;13.266;2023-03-01T05:35:40;4.63;;;2.80;;
4424;SDS011;2225;53.568;13.266;2023-03-01T05:38:09;5.80;;;3.10;;
4424;SDS011;2225;53.568;13.266;2023-03-01T05:40:44;7.07;;;3.80;;
4424;SDS011;2225;53.568;13.266;2023-03-01T05:43:14;6.23;;;3.30;;
4424;SDS011;2225;53.568;13.266;2023-03-01T05:45:43;5.70;;;3.20;;
4424;SDS011;2225;53.568;13.266;2023-03-01T05:48:10;8.93;;;4.30;;
4424;SDS011;2225;53.568;13.266;2023-03-01T05:50:42;7.10;;;3.10;;
4424;SDS011;2225;53.568;13.266;2023-03-01T05:53:11;5.70;;;2.90;;
4424;SDS011;2225;53.568;13.266;2023-03-01T05:55:42;4.43;;;2.70;;
4424;SDS011;2225;53.568;13.266;2023-03-01T05:58:11;5.97;;;2.70;;
4424;SDS011;2225;53.568;13.266;2023-03-01T06:00:41;3.33;;;2.70;;
4424;SDS011;2225;53.568;13.266;2023-03-01T06:03:11;7.10;;;2.83;;
4424;SDS011;2225;53.568;13.266;2023-03-01T06:05:40;3.90;;;3.43;;
4424;SDS011;2225;53.568;13.266;2023-03-01T06:08:08;5.60;;;3.83;;
4424;SDS011;2225;53.568;13.266;2023-03-01T06:10:37;5.60;;;3.30;;
4424;SDS011;2225;53.568;13.266;2023-03-01T06:13:04;5.70;;;3.20;;
4424;SDS011;2225;53.568;13.266;2023-03-01T06:15:31;5.83;;;2.67;;
4424;SDS011;2225;53.568;13.266;2023-03-01T06:17:58;4.13;;;2.33;;
4424;SDS011;2225;53.568;13.266;2023-03-01T06:20:26;5.20;;;2.60;;
4424;SDS011;2225;53.568;13.266;2023-03-01T06:22:55;5.50;;;2.87;;
4424;SDS011;2225;53.568;13.266;2023-03-01T06:25:23;4.10;;;3.00;;
4424;SDS011;2225;53.568;13.266;2023-03-01T06:27:52;5.60;;;3.17;;
4424;SDS011;2225;53.568;13.266;2023-03-01T06:30:19;5.87;;;3.33;;
4424;SDS011;2225;53.568;13.266;2023-03-01T06:32:49;5.57;;;3.23;;
4424;SDS011;2225;53.568;13.266;2023-03-01T06:35:17;8.30;;;4.10;;
4424;SDS011;2225;53.568;13.266;2023-03-01T06:37:46;6.53;;;3.00;;
4424;SDS011;2225;53.568;13.266;2023-03-01T06:40:14;7.30;;;3.80;;
4424;SDS011;2225;53.568;13.266;2023-03-01T06:42:42;6.67;;;3.23;;
4424;SDS011;2225;53.568;13.266;2023-03-01T06:45:15;5.50;;;3.00;;
4424;SDS011;2225;53.568;13.266;2023-03-01T06:47:45;5.93;;;3.07;;
4424;SDS011;2225;53.568;13.266;2023-03-01T06:50:12;7.00;;;4.20;;
4424;SDS011;2225;53.568;13.266;2023-03-01T06:52:40;7.03;;;4.07;;
4424;SDS011;2225;53.568;13.266;2023-03-01T06:55:07;5.20;;;3.70;;
4424;SDS011;2225;53.568;13.266;2023-03-01T06:57:34;5.33;;;3.90;;
4424;SDS011;2225;53.568;13.266;2023-03-01T07:00:02;10.13;;;3.40;;
4424;SDS011;2225;53.568;13.266;2023-03-01T07:02:30;5.57;;;3.00;;
4424;SDS011;2225;53.568;13.266;2023-03-01T07:04:57;4.30;;;3.10;;
4424;SDS011;2225;53.568;13.266;2023-03-01T07:07:24;10.63;;;3.30;;
4424;SDS011;2225;53.568;13.266;2023-03-01T07:09:51;5.20;;;2.80;;
4424;SDS011;2225;53.568;13.266;2023-03-01T07:12:19;8.57;;;4.33;;
4424;SDS011;2225;53.568;13.266;2023-03-01T07:14:46;8.30;;;4.50;;
4424;SDS011;2225;53.568;13.266;2023-03-01T07:17:13;8.77;;;4.40;;
4424;SDS011;2225;53.568;13.266;2023-03-01T07:19:40;9.20;;;4.23;;
4424;SDS011;2225;53.568;13.266;2023-03-01T07:22:06;19.77;;;8.50;;
4424;SDS011;2225;53.568;13.266;2023-03-01T07:24:36;11.87;;;6.30;;
4424;SDS011;2225;53.568;13.266;2023-03-01T07:27:03;61.07;;;24.87;;
4424;SDS011;2225;53.568;13.266;2023-03-01T07:29:30;68.37;;;29.37;;
4424;SDS011;2225;53.568;13.266;2023-03-01T07:31:57;43.77;;;18.83;;
4424;SDS011;2225;53.568;13.266;2023-03-01T07:34:24;15.43;;;8.00;;
4424;SDS011;2225;53.568;13.266;2023-03-01T07:36:51;12.90;;;5.03;;
4424;SDS011;2225;53.568;13.266;2023-03-01T07:39:18;8.63;;;4.57;;
4424;SDS011;2225;53.568;13.266;2023-03-01T07:41:45;11.40;;;4.40;;
4424;SDS011;2225;53.568;13.266;2023-03-01T07:44:12;7.67;;;4.47;;
4424;SDS011;2225;53.568;13.266;2023-03-01T07:46:39;6.03;;;3.67;;
4424;SDS011;2225;53.568;13.266;2023-03-01T07:49:06;8.57;;;4.37;;
4424;SDS011;2225;53.568;13.266;2023-03-01T07:51:33;7.87;;;3.90;;
4424;SDS011;2225;53.568;13.266;2023-03-01T07:54:00;8.00;;;4.20;;
4424;SDS011;2225;53.568;13.266;2023-03-01T07:56:27;6.60;;;4.50;;
4424;SDS011;2225;53.568;13.266;2023-03-01T07:58:54;18.43;;;6.00;;
4424;SDS011;2225;53.568;13.266;2023-03-01T08:01:21;10.17;;;5.50;;
4424;SDS011;2225;53.568;13.266;2023-03-01T08:03:48;10.10;;;6.03;;
4424;SDS011;2225;53.568;13.266;2023-03-01T08:06:16;9.00;;;5.03;;
4424;SDS011;2225;53.568;13.266;2023-03-01T08:08:44;8.77;;;5.03;;
4424;SDS011;2225;53.568;13.266;2023-03-01T08:11:11;14.20;;;4.77;;
4424;SDS011;2225;53.568;13.266;2023-03-01T08:13:40;8.93;;;5.33;;
4424;SDS011;2225;53.568;13.266;2023-03-01T08:16:10;11.70;;;4.90;;
4424;SDS011;2225;53.568;13.266;2023-03-01T08:18:40;10.67;;;5.10;;
4424;SDS011;2225;53.568;13.266;2023-03-01T08:21:09;10.07;;;5.00;;
4424;SDS011;2225;53.568;13.266;2023-03-01T08:23:39;8.00;;;3.70;;
4424;SDS011;2225;53.568;13.266;2023-03-01T08:26:17;11.90;;;4.97;;
4424;SDS011;2225;53.568;13.266;2023-03-01T08:28:46;6.83;;;3.93;;
4424;SDS011;2225;53.568;13.266;2023-03-01T08:31:22;10.37;;;4.63;;
4424;SDS011;2225;53.568;13.266;2023-03-01T08:33:57;10.27;;;5.17;;
4424;SDS011;2225;53.568;13.266;2023-03-01T08:36:27;20.13;;;4.80;;
4424;SDS011;2225;53.568;13.266;2023-03-01T08:39:06;11.63;;;5.40;;
4424;SDS011;2225;53.568;13.266;2023-03-01T08:41:34;8.87;;;5.67;;
4424;SDS011;2225;53.568;13.266;2023-03-01T08:44:02;14.43;;;5.77;;
4424;SDS011;2225;53.568;13.266;2023-03-01T08:46:30;9.57;;;5.70;;
4424;SDS011;2225;53.568;13.266;2023-03-01T08:49:04;9.93;;;5.67;;
4424;SDS011;2225;53.568;13.266;2023-03-01T08:51:35;11.50;;;5.93;;
4424;SDS011;2225;53.568;13.266;2023-03-01T08:54:05;9.60;;;4.97;;
4424;SDS011;2225;53.568;13.266;2023-03-01T08:56:37;10.17;;;5.40;;
4424;SDS011;2225;53.568;13.266;2023-03-01T08:59:04;9.07;;;5.93;;
4424;SDS011;2225;53.568;13.266;2023-03-01T09:01:31;13.67;;;5.60;;
4424;SDS011;2225;53.568;13.266;2023-03-01T09:03:58;12.23;;;4.90;;
4424;SDS011;2225;53.568;13.266;2023-03-01T09:06:25;12.07;;;5.60;;
4424;SDS011;2225;53.568;13.266;2023-03-01T09:08:52;9.80;;;4.60;;
4424;SDS011;2225;53.568;13.266;2023-03-01T09:11:21;11.30;;;5.27;;
4424;SDS011;2225;53.568;13.266;2023-03-01T09:13:48;9.87;;;5.57;;
4424;SDS011;2225;53.568;13.266;2023-03-01T09:16:17;9.60;;;5.30;;
4424;SDS011;2225;53.568;13.266;2023-03-01T09:18:48;30.87;;;5.50;;
4424;SDS011;2225;53.568;13.266;2023-03-01T09:21:18;10.27;;;4.80;;
4424;SDS011;2225;53.568;13.266;2023-03-01T09:24:04;12.23;;;5.20;;
4424;SDS011;2225;53.568;13.266;2023-03-01T09:26:32;10.13;;;4.90;;
4424;SDS011;2225;53.568;13.266;2023-03-01T09:28:59;9.67;;;4.97;;
4424;SDS011;2225;53.568;13.266;2023-03-01T09:31:26;10.40;;;5.63;;
4424;SDS011;2225;53.568;13.266;2023-03-01T09:33:53;11.57;;;5.67;;
4424;SDS011;2225;53.568;13.266;2023-03-01T09:36:21;11.53;;;6.10;;
4424;SDS011;2225;53.568;13.266;2023-03-01T09:38:51;11.00;;;5.83;;
4424;SDS011;2225;53.568;13.266;2023-03-01T09:41:28;11.47;;;6.40;;
4424;SDS011;2225;53.568;13.266;2023-03-01T09:44:21;12.77;;;6.40;;
4424;SDS011;2225;53.568;13.266;2023-03-01T09:46:56;8.93;;;5.03;;
4424;SDS011;2225;53.568;13.266;2023-03-01T09:49:26;11.40;;;7.43;;
4424;SDS011;2225;53.568;13.266;2023-03-01T09:52:01;18.23;;;7.13;;
4424;SDS011;2225;53.568;13.266;2023-03-01T09:54:41;15.47;;;7.30;;
4424;SDS011;2225;53.568;13.266;2023-03-01T10:08:53;21.43;;;9.93;;
4424;SDS011;2225;53.568;13.266;2023-03-01T10:11:31;16.20;;;9.10;;
4424;SDS011;2225;53.568;13.266;2023-03-01T10:14:12;14.40;;;8.23;;
4424;SDS011;2225;53.568;13.266;2023-03-01T10:20:26;15.87;;;9.13;;
4424;SDS011;2225;53.568;13.266;2023-03-01T10:23:08;13.00;;;7.50;;
4424;SDS011;2225;53.568;13.266;2023-03-01T10:25:40;15.83;;;8.97;;
4424;SDS011;2225;53.568;13.266;2023-03-01T10:29:00;15.77;;;9.50;;
4424;SDS011;2225;53.568;13.266;2023-03-01T10:31:38;21.33;;;9.50;;
4424;SDS011;2225;53.568;13.266;2023-03-01T10:34:18;16.87;;;9.63;;
4424;SDS011;2225;53.568;13.266;2023-03-01T10:39:54;20.80;;;9.30;;
4424;SDS011;2225;53.568;13.266;2023-03-01T10:42:26;21.80;;;11.60;;
4424;SDS011;2225;53.568;13.266;2023-03-01T10:44:56;25.97;;;13.57;;
4424;SDS011;2225;53.568;13.266;2023-03-01T10:47:26;28.20;;;13.30;;
4424;SDS011;2225;53.568;13.266;2023-03-01T10:50:00;25.80;;;15.53;;
4424;SDS011;2225;53.568;13.266;2023-03-01T10:52:35;37.43;;;16.87;;
4424;SDS011;2225;53.568;13.266;2023-03-01T10:57:42;28.00;;;15.97;;
4424;SDS011;2225;53.568;13.266;2023-03-01T11:05:25;31.03;;;18.00;;
4424;SDS011;2225;53.568;13.266;2023-03-01T11:07:56;26.03;;;16.87;;
4424;SDS011;2225;53.568;13.266;2023-03-01T11:10:26;32.83;;;19.13;;
4424;SDS011;2225;53.568;13.266;2023-03-01T11:15:58;36.83;;;20.77;;
4424;SDS011;2225;53.568;13.266;2023-03-01T11:18:29;26.93;;;17.17;;
4424;SDS011;2225;53.568;13.266;2023-03-01T11:21:13;30.83;;;17.17;;
4424;SDS011;2225;53.568;13.266;2023-03-01T11:23:41;40.40;;;21.87;;
4424;SDS011;2225;53.568;13.266;2023-03-01T11:26:12;34.30;;;20.50;;
4424;SDS011;2225;53.568;13.266;2023-03-01T11:28:40;32.17;;;18.53;;
4424;SDS011;2225;53.568;13.266;2023-03-01T11:31:09;29.13;;;17.33;;
4424;SDS011;2225;53.568;13.266;2023-03-01T11:33:41;30.37;;;19.07;;
4424;SDS011;2225;53.568;13.266;2023-03-01T11:39:40;32.50;;;17.67;;
4424;SDS011;2225;53.568;13.266;2023-03-01T11:42:17;30.97;;;17.33;;
4424;SDS011;2225;53.568;13.266;2023-03-01T11:44:52;29.57;;;18.43;;
4424;SDS011;2225;53.568;13.266;2023-03-01T11:50:34;33.07;;;17.57;;
4424;SDS011;2225;53.568;13.266;2023-03-01T11:53:19;34.23;;;16.47;;
4424;SDS011;2225;53.568;13.266;2023-03-01T12:01:41;28.40;;;17.53;;
4424;SDS011;2225;53.568;13.266;2023-03-01T12:04:54;29.53;;;18.27;;
4424;SDS011;2225;53.568;13.266;2023-03-01T12:07:46;29.53;;;17.17;;
4424;SDS011;2225;53.568;13.266;2023-03-01T12:10:26;30.77;;;18.80;;
4424;SDS011;2225;53.568;13.266;2023-03-01T12:12:58;30.50;;;18.50;;
4424;SDS011;2225;53.568;13.266;2023-03-01T12:16:26;29.00;;;17.60;;
4424;SDS011;2225;53.568;13.266;2023-03-01T12:26:16;29.80;;;15.67;;
4424;SDS011;2225;53.568;13.266;2023-03-01T12:31:53;37.00;;;17.73;;
4424;SDS011;2225;53.568;13.266;2023-03-01T12:35:04;29.43;;;16.93;;
4424;SDS011;2225;53.568;13.266;2023-03-01T12:40:43;31.23;;;17.60;;
4424;SDS011;2225;53.568;13.266;2023-03-01T12:46:42;30.60;;;19.07;;
4424;SDS011;2225;53.568;13.266;2023-03-01T12:49:31;36.70;;;20.07;;
4424;SDS011;2225;53.568;13.266;2023-03-01T12:52:13;40.67;;;19.23;;
4424;SDS011;2225;53.568;13.266;2023-03-01T12:54:48;25.90;;;16.50;;
4424;SDS011;2225;53.568;13.266;2023-03-01T12:57:20;33.80;;;19.67;;
4424;SDS011;2225;53.568;13.266;2023-03-01T13:02:39;30.10;;;17.77;;
4424;SDS011;2225;53.568;13.266;2023-03-01T13:05:20;39.27;;;17.70;;
4424;SDS011;2225;53.568;13.266;2023-03-01T13:08:20;30.03;;;17.77;;
4424;SDS011;2225;53.568;13.266;2023-03-01T13:11:14;28.90;;;17.03;;
4424;SDS011;2225;53.568;13.266;2023-03-01T13:13:45;25.73;;;15.23;;
4424;SDS011;2225;53.568;13.266;2023-03-01T13:19:28;28.30;;;17.80;;
4424;SDS011;2225;53.568;13.266;2023-03-01T13:21:58;32.93;;;17.90;;
4424;SDS011;2225;53.568;13.266;2023-03-01T13:24:41;38.10;;;21.03;;
4424;SDS011;2225;53.568;13.266;2023-03-01T13:27:21;35.10;;;17.53;;
4424;SDS011;2225;53.568;13.266;2023-03-01T13:29:56;35.43;;;19.17;;
4424;SDS011;2225;53.568;13.266;2023-03-01T13:32:30;34.10;;;20.17;;
4424;SDS011;2225;53.568;13.266;2023-03-01T13:37:46;44.33;;;18.50;;
4424;SDS011;2225;53.568;13.266;2023-03-01T13:42:45;48.80;;;18.87;;
4424;SDS011;2225;53.568;13.266;2023-03-01T13:45:36;50.53;;;17.30;;
4424;SDS011;2225;53.568;13.266;2023-03-01T13:48:11;41.80;;;19.23;;
4424;SDS011;2225;53.568;13.266;2023-03-01T13:50:55;57.13;;;19.60;;
4424;SDS011;2225;53.568;13.266;2023-03-01T13:53:27;34.83;;;18.90;;
4424;SDS011;2225;53.568;13.266;2023-03-01T13:56:13;36.43;;;17.73;;
4424;SDS011;2225;53.568;13.266;2023-03-01T13:59:01;28.87;;;18.43;;
4424;SDS011;2225;53.568;13.266;2023-03-01T14:01:33;42.40;;;19.30;;
4424;SDS011;2225;53.568;13.266;2023-03-01T14:04:03;35.60;;;17.50;;
4424;SDS011;2225;53.568;13.266;2023-03-01T14:06:49;31.80;;;18.53;;
4424;SDS011;2225;53.568;13.266;2023-03-01T14:09:17;30.00;;;17.70;;
4424;SDS011;2225;53.568;13.266;2023-03-01T14:12:06;27.93;;;16.07;;
4424;SDS011;2225;53.568;13.266;2023-03-01T14:18:14;47.33;;;15.30;;
4424;SDS011;2225;53.568;13.266;2023-03-01T14:20:56;27.20;;;15.10;;
4424;SDS011;2225;53.568;13.266;2023-03-01T14:23:23;56.23;;;17.60;;
4424;SDS011;2225;53.568;13.266;2023-03-01T14:25:53;46.50;;;17.80;;
4424;SDS011;2225;53.568;13.266;2023-03-01T14:28:24;80.80;;;18.93;;
4424;SDS011;2225;53.568;13.266;2023-03-01T14:30:57;68.23;;;19.47;;
4424;SDS011;2225;53.568;13.266;2023-03-01T14:33:27;76.83;;;19.80;;
4424;SDS011;2225;53.568;13.266;2023-03-01T14:36:12;48.03;;;18.37;;
4424;SDS011;2225;53.568;13.266;2023-03-01T14:38:40;31.70;;;15.83;;
4424;SDS011;2225;53.568;13.266;2023-03-01T14:41:15;31.73;;;16.10;;
4424;SDS011;2225;53.568;13.266;2023-03-01T14:43:50;24.30;;;14.10;;
4424;SDS011;2225;53.568;13.266;2023-03-01T14:49:02;25.93;;;15.30;;
4424;SDS011;2225;53.568;13.266;2023-03-01T14:51:39;36.20;;;16.63;;
4424;SDS011;2225;53.568;13.266;2023-03-01T14:54:51;27.50;;;15.97;;
4424;SDS011;2225;53.568;13.266;2023-03-01T14:57:13;27.73;;;14.73;;
4424;SDS011;2225;53.568;13.266;2023-03-01T14:59:48;33.43;;;14.63;;
4424;SDS011;2225;53.568;13.266;2023-03-01T15:02:19;37.93;;;17.33;;
4424;SDS011;2225;53.568;13.266;2023-03-01T15:04:51;28.00;;;14.90;;
4424;SDS011;2225;53.568;13.266;2023-03-01T15:07:24;28.90;;;16.40;;
4424;SDS011;2225;53.568;13.266;2023-03-01T15:09:58;25.67;;;15.17;;
4424;SDS011;2225;53.568;13.266;2023-03-01T15:14:55;30.27;;;16.10;;
4424;SDS011;2225;53.568;13.266;2023-03-01T15:20:02;39.50;;;16.47;;
4424;SDS011;2225;53.568;13.266;2023-03-01T15:22:33;30.67;;;17.20;;
4424;SDS011;2225;53.568;13.266;2023-03-01T15:25:01;32.47;;;18.40;;
4424;SDS011;2225;53.568;13.266;2023-03-01T15:27:28;29.97;;;17.80;;
4424;SDS011;2225;53.568;13.266;2023-03-01T15:29:57;31.10;;;16.80;;
4424;SDS011;2225;53.568;13.266;2023-03-01T15:32:30;31.50;;;17.40;;
4424;SDS011;2225;53.568;13.266;2023-03-01T15:38:25;29.50;;;16.43;;
4424;SDS011;2225;53.568;13.266;2023-03-01T15:41:02;33.37;;;17.40;;
4424;SDS011;2225;53.568;13.266;2023-03-01T15:43:46;31.33;;;17.40;;
4424;SDS011;2225;53.568;13.266;2023-03-01T15:46:34;32.43;;;17.10;;
4424;SDS011;2225;53.568;13.266;2023-03-01T15:49:02;29.90;;;16.13;;
4424;SDS011;2225;53.568;13.266;2023-03-01T15:51:33;33.10;;;16.83;;
4424;SDS011;2225;53.568;13.266;2023-03-01T15:54:04;31.90;;;17.30;;
4424;SDS011;2225;53.568;13.266;2023-03-01T15:56:52;28.67;;;15.80;;
4424;SDS011;2225;53.568;13.266;2023-03-01T15:59:19;30.73;;;15.67;;
4424;SDS011;2225;53.568;13.266;2023-03-01T16:01:48;31.00;;;14.80;;
4424;SDS011;2225;53.568;13.266;2023-03-01T16:04:16;29.17;;;15.47;;
4424;SDS011;2225;53.568;13.266;2023-03-01T16:06:49;26.23;;;13.00;;
4424;SDS011;2225;53.568;13.266;2023-03-01T16:09:23;26.73;;;14.40;;
4424;SDS011;2225;53.568;13.266;2023-03-01T16:11:52;27.20;;;13.90;;
4424;SDS011;2225;53.568;13.266;2023-03-01T16:14:19;27.67;;;14.50;;
4424;SDS011;2225;53.568;13.266;2023-03-01T16:16:47;22.83;;;13.80;;
4424;SDS011;2225;53.568;13.266;2023-03-01T16:19:15;26.20;;;14.97;;
4424;SDS011;2225;53.568;13.266;2023-03-01T16:21:42;22.33;;;12.43;;
4424;SDS011;2225;53.568;13.266;2023-03-01T16:24:13;23.60;;;13.00;;
4424;SDS011;2225;53.568;13.266;2023-03-01T16:26:40;24.70;;;12.80;;
4424;SDS011;2225;53.568;13.266;2023-03-01T16:29:08;23.10;;;12.83;;
4424;SDS011;2225;53.568;13.266;2023-03-01T16:31:35;25.60;;;14.23;;
4424;SDS011;2225;53.568;13.266;2023-03-01T16:34:03;29.00;;;13.20;;
4424;SDS011;2225;53.568;13.266;2023-03-01T16:36:30;31.63;;;15.13;;
4424;SDS011;2225;53.568;13.266;2023-03-01T16:38:58;24.10;;;12.77;;
4424;SDS011;2225;53.568;13.266;2023-03-01T16:41:26;28.23;;;14.20;;
4424;SDS011;2225;53.568;13.266;2023-03-01T16:43:54;26.63;;;14.23;;
4424;SDS011;2225;53.568;13.266;2023-03-01T16:46:25;31.00;;;15.37;;
4424;SDS011;2225;53.568;13.266;2023-03-01T16:48:56;27.37;;;15.13;;